Terminal Aerodrome Forecast
Issued by NWS

Home | Current Version | Previous Version | Text Only | Print | Product List | Glossary On
Versions: 1 2 3 4 5 6 7 8 9 10 11 12 13
000
FTUS41 KLWX 251120
TAFMTN
TAF
KMTN 251120Z 2512/2612 20007KT P6SM BKN150
     FM251900 18011KT P6SM BKN045
     FM260200 18007KT P6SM BKN250
     FM261100 24005KT P6SM SCT080=

USA.gov is the U.S. government's official web portal to all federal, state and local government web resources and services.